Time;durP1;ratioP1;P1;durP2;ratioP2;P2;SDS_P1;SDS_P2;PMS_P1;PMS_P2;Temp;Humidity;BMP_temperature;BMP_pressure;BME280_temperature;BME280_humidity;BME280_pressure;Samples;Min_cycle;Max_cycle;Signal;HPM_P1;HPM_P2
2021/01/26 00:00:13;;;;;;;14.83;10.07;;;;;;;1.77;70.55;96319.56;5083198;28;20182;-66
2021/01/26 00:02:39;;;;;;;12.63;8.97;;;;;;;1.83;70.67;96319.94;5092218;28;20178;-67
2021/01/26 00:05:05;;;;;;;12.10;8.20;;;;;;;1.62;70.78;96322.44;5092097;28;21011;-65
2021/01/26 00:07:31;;;;;;;12.17;8.80;;;;;;;1.61;70.21;96325.97;5092775;28;20209;-66
2021/01/26 00:09:57;;;;;;;11.80;8.70;;;;;;;1.42;70.80;96330.88;5092612;28;20500;-66
2021/01/26 00:12:23;;;;;;;11.87;8.43;;;;;;;1.59;70.53;96324.41;5090687;28;20181;-66
2021/01/26 00:14:49;;;;;;;12.67;9.03;;;;;;;1.66;69.34;96325.59;5091743;28;20439;-64
2021/01/26 00:17:15;;;;;;;11.97;8.33;;;;;;;1.61;69.11;96331.13;5090014;28;20427;-64
2021/01/26 00:19:40;;;;;;;10.47;8.13;;;;;;;1.63;68.88;96328.41;5090632;28;20176;-67
2021/01/26 00:22:06;;;;;;;12.57;8.27;;;;;;;1.89;68.25;96328.97;5092309;28;20585;-65
2021/01/26 00:24:32;;;;;;;12.03;9.07;;;;;;;1.61;68.96;96331.13;5092234;28;20292;-66
2021/01/26 00:26:58;;;;;;;12.13;8.10;;;;;;;1.68;68.93;96329.69;5092053;28;20568;-67
2021/01/26 00:29:24;;;;;;;10.77;8.30;;;;;;;1.83;67.56;96329.47;5091474;28;20181;-66
2021/01/26 00:31:49;;;;;;;14.27;8.73;;;;;;;1.90;67.03;96330.59;5091619;28;20265;-66
2021/01/26 00:34:15;;;;;;;11.00;8.27;;;;;;;1.89;67.17;96335.91;5091577;28;20174;-65
2021/01/26 00:36:41;;;;;;;10.33;8.20;;;;;;;1.87;66.71;96330.88;5091189;28;20227;-66
2021/01/26 00:39:07;;;;;;;10.20;8.37;;;;;;;1.97;66.68;96325.78;5091487;28;20181;-65
2021/01/26 00:41:32;;;;;;;14.03;8.80;;;;;;;1.90;66.79;96338.34;5092235;28;20182;-65
2021/01/26 00:43:58;;;;;;;11.80;8.67;;;;;;;1.69;67.09;96343.44;5101921;28;20236;-68
2021/01/26 00:46:24;;;;;;;13.13;8.80;;;;;;;1.69;67.69;96341.69;5111995;28;20285;-68
2021/01/26 00:48:49;;;;;;;10.33;8.13;;;;;;;1.19;68.26;96346.34;5101276;28;20179;-66
2021/01/26 00:51:15;;;;;;;12.47;8.37;;;;;;;1.92;67.21;96343.44;5092258;28;20219;-66
2021/01/26 00:53:41;;;;;;;12.07;8.90;;;;;;;2.02;66.46;96340.97;5090495;28;20293;-66
2021/01/26 00:56:06;;;;;;;13.47;9.17;;;;;;;1.49;67.48;96347.56;5091588;28;20534;-67
2021/01/26 00:58:32;;;;;;;11.70;9.00;;;;;;;1.54;67.23;96355.75;5091962;28;20193;-66
2021/01/26 01:00:58;;;;;;;14.07;8.00;;;;;;;1.54;67.71;96366.09;5087692;28;20189;-67
2021/01/26 01:03:23;;;;;;;12.40;8.77;;;;;;;1.34;68.37;96355.53;5095776;28;20169;-66
2021/01/26 01:05:49;;;;;;;11.73;8.67;;;;;;;1.26;68.38;96357.84;5094127;28;20205;-67
2021/01/26 01:08:15;;;;;;;12.30;8.60;;;;;;;1.23;68.35;96353.72;5095801;28;20281;-68
2021/01/26 01:10:41;;;;;;;12.53;8.50;;;;;;;1.34;67.90;96360.69;5095320;28;20265;-67
2021/01/26 01:13:09;;;;;;;11.10;8.40;;;;;;;1.42;67.47;96361.84;5094003;28;20629;-66
2021/01/26 01:15:35;;;;;;;11.17;8.30;;;;;;;1.28;67.77;96368.88;5094779;28;20282;-66
2021/01/26 01:18:01;;;;;;;11.20;8.23;;;;;;;0.83;68.59;96366.19;5094898;28;20448;-67
2021/01/26 01:20:27;;;;;;;13.80;8.63;;;;;;;1.19;67.59;96374.72;5095710;28;20469;-66
2021/01/26 01:22:53;;;;;;;13.10;8.90;;;;;;;0.87;68.21;96370.19;5090056;28;20189;-66
2021/01/26 01:25:20;;;;;;;13.17;7.90;;;;;;;0.88;68.33;96374.44;5096133;28;20859;-66
2021/01/26 01:27:46;;;;;;;10.77;7.80;;;;;;;0.55;68.56;96378.50;5095453;28;20262;-65
2021/01/26 01:30:15;;;;;;;10.70;8.10;;;;;;;0.74;68.35;96380.56;5094879;28;20415;-66
2021/01/26 01:32:41;;;;;;;10.97;8.03;;;;;;;0.64;68.48;96388.16;5092794;28;20451;-66
2021/01/26 01:35:07;;;;;;;22.80;8.20;;;;;;;0.68;67.98;96392.16;5093881;28;20439;-67
2021/01/26 01:37:33;;;;;;;11.93;8.63;;;;;;;0.72;67.82;96393.59;5088287;28;20205;-66
2021/01/26 01:39:59;;;;;;;11.10;8.07;;;;;;;0.92;66.69;96399.06;5093672;28;20494;-67
2021/01/26 01:42:25;;;;;;;11.80;8.43;;;;;;;1.09;66.32;96402.16;5095269;28;20518;-67
2021/01/26 01:44:50;;;;;;;11.80;8.17;;;;;;;0.60;67.64;96410.75;5094751;28;20201;-63
2021/01/26 01:47:39;;;;;;;12.27;8.57;;;;;;;0.70;67.84;96405.78;5094059;28;20221;-67
2021/01/26 01:50:07;;;;;;;14.40;8.43;;;;;;;0.69;67.04;96405.91;5092822;28;20191;-66
2021/01/26 01:52:35;;;;;;;11.97;8.73;;;;;;;0.90;66.06;96408.66;5094987;28;20491;-66
2021/01/26 01:55:21;;;;;;;11.00;7.80;;;;;;;0.65;66.73;96414.78;5093300;28;20416;-64
2021/01/26 01:57:52;;;;;;;11.13;7.90;;;;;;;0.76;66.54;96409.66;5091896;28;20459;-66
2021/01/26 02:00:19;;;;;;;11.90;8.30;;;;;;;0.57;67.45;96423.88;5094525;28;20477;-67
2021/01/26 02:02:50;;;;;;;9.63;7.30;;;;;;;0.69;67.64;96422.19;5093328;28;20785;-66
2021/01/26 02:05:16;;;;;;;12.43;8.23;;;;;;;0.64;67.39;96429.41;5094023;28;20443;-64
2021/01/26 02:07:42;;;;;;;11.70;7.97;;;;;;;0.61;68.27;96421.91;5093451;28;20507;-65
2021/01/26 02:10:08;;;;;;;14.73;8.53;;;;;;;0.90;67.25;96434.47;5075426;28;20599;-66
2021/01/26 02:12:34;;;;;;;11.07;7.77;;;;;;;0.90;66.91;96439.63;5093233;28;20182;-66
2021/01/26 02:15:00;;;;;;;10.97;8.03;;;;;;;1.13;66.04;96439.72;5093573;28;20416;-67
2021/01/26 02:18:14;;;;;;;10.50;7.23;;;;;;;1.07;66.91;96441.81;5092436;28;20432;-67
2021/01/26 02:21:25;;;;;;;10.00;7.03;;;;;;;1.03;66.08;96440.38;5074121;28;20220;-68
2021/01/26 02:24:09;;;;;;;10.63;7.87;;;;;;;1.03;66.28;96440.38;5090707;28;20479;-66
2021/01/26 02:27:04;;;;;;;10.37;7.60;;;;;;;0.82;66.52;96441.94;5090665;28;20489;-66
2021/01/26 02:29:49;;;;;;;9.17;6.00;;;;;;;0.77;66.34;96442.28;5065539;28;20428;-66
2021/01/26 02:32:43;;;;;;;11.53;8.33;;;;;;;0.85;66.88;96444.31;5074451;28;20412;-66
2021/01/26 02:35:23;;;;;;;11.23;7.60;;;;;;;1.37;65.68;96443.09;5091155;28;20416;-66
2021/01/26 02:38:15;;;;;;;14.40;8.60;;;;;;;1.31;65.54;96453.03;5090935;28;20444;-67
2021/01/26 02:40:58;;;;;;;12.57;8.60;;;;;;;1.09;66.14;96452.00;5078265;28;20899;-67
2021/01/26 02:43:44;;;;;;;17.13;8.67;;;;;;;0.95;66.58;96450.44;5084050;28;20469;-65
2021/01/26 02:46:10;;;;;;;13.53;8.90;;;;;;;1.40;65.87;96446.34;5082459;28;20447;-66
2021/01/26 02:48:47;;;;;;;14.17;8.60;;;;;;;1.04;65.78;96448.97;5066587;28;20605;-65
2021/01/26 02:51:27;;;;;;;14.13;9.10;;;;;;;0.45;68.49;96451.34;5062895;28;20708;-66
2021/01/26 02:54:00;;;;;;;11.47;8.10;;;;;;;1.37;65.78;96447.41;5071739;28;20412;-66
2021/01/26 02:56:36;;;;;;;15.47;9.07;;;;;;;1.31;66.05;96447.88;5054973;28;20555;-65
2021/01/26 02:59:09;;;;;;;13.53;9.23;;;;;;;1.27;65.86;96449.84;5076479;28;20415;-67
2021/01/26 03:01:41;;;;;;;14.07;8.93;;;;;;;1.04;67.03;96449.78;5095042;28;20450;-66
2021/01/26 03:04:15;;;;;;;14.93;9.10;;;;;;;0.77;66.98;96463.72;5096001;28;21107;-66
2021/01/26 03:06:43;;;;;;;13.43;8.80;;;;;;;0.67;68.17;96460.16;5091138;28;20445;-66
2021/01/26 03:09:15;;;;;;;14.67;8.80;;;;;;;0.67;67.70;96462.72;5093885;28;20420;-66
2021/01/26 03:11:52;;;;;;;14.93;9.53;;;;;;;0.78;67.97;96456.81;5095856;28;20416;-66
2021/01/26 03:14:39;;;;;;;15.10;9.77;;;;;;;1.11;66.93;96449.34;5094623;28;20439;-66
2021/01/26 03:17:10;;;;;;;14.67;10.10;;;;;;;0.74;67.21;96456.22;5092016;28;20439;-67
2021/01/26 03:19:38;;;;;;;14.50;9.10;;;;;;;1.15;66.50;96461.06;5091759;28;20523;-68
2021/01/26 03:22:04;;;;;;;14.00;8.13;;;;;;;0.72;67.69;96452.91;5083062;28;20482;-65
2021/01/26 03:24:35;;;;;;;14.40;9.37;;;;;;;0.66;68.04;96462.84;5090187;28;20855;-65
2021/01/26 03:27:07;;;;;;;15.40;10.40;;;;;;;0.58;69.12;96450.50;5091018;28;20492;-66
2021/01/26 03:29:34;;;;;;;16.30;9.40;;;;;;;0.75;69.07;96447.56;5092635;28;20832;-67
2021/01/26 03:32:03;;;;;;;17.00;9.20;;;;;;;1.11;66.78;96439.00;5085890;28;20645;-66
2021/01/26 03:34:29;;;;;;;20.00;11.70;;;;;;;1.04;66.39;96430.91;5089049;28;20412;-68
2021/01/26 03:36:55;;;;;;;14.50;9.53;;;;;;;0.94;67.51;96430.72;5090462;28;20855;-67
2021/01/26 03:39:21;;;;;;;17.00;10.13;;;;;;;0.77;68.39;96440.50;5091860;28;20491;-67
2021/01/26 03:41:47;;;;;;;16.53;9.33;;;;;;;0.75;68.09;96431.22;5091880;28;20419;-66
2021/01/26 03:44:13;;;;;;;13.47;9.47;;;;;;;1.06;67.24;96434.19;5091259;28;20225;-66
2021/01/26 03:46:48;;;;;;;17.57;9.50;;;;;;;0.97;66.90;96438.25;5091633;28;21038;-66
2021/01/26 03:49:33;;;;;;;15.40;9.33;;;;;;;0.99;67.29;96448.47;5092505;28;20177;-68
2021/01/26 03:52:15;;;;;;;13.63;9.80;;;;;;;1.09;67.60;96443.47;5090816;28;20419;-67
2021/01/26 03:55:10;;;;;;;16.90;9.90;;;;;;;0.87;67.72;96450.19;5070021;28;20427;-67
2021/01/26 03:57:39;;;;;;;19.30;9.97;;;;;;;0.81;67.68;96442.88;5084018;28;20451;-66
2021/01/26 04:00:04;;;;;;;14.90;9.93;;;;;;;1.04;67.29;96444.59;5091861;28;20480;-66
2021/01/26 04:03:11;;;;;;;15.43;8.77;;;;;;;1.10;67.31;96445.09;5085840;28;20425;-66
2021/01/26 04:05:49;;;;;;;14.33;9.30;;;;;;;1.25;66.62;96445.72;5108109;28;20202;-67
2021/01/26 04:08:17;;;;;;;11.47;8.40;;;;;;;0.86;67.74;96443.38;5099840;28;20431;-66
2021/01/26 04:10:52;;;;;;;19.97;9.40;;;;;;;1.13;67.45;96444.88;5091693;28;20412;-66
2021/01/26 04:13:22;;;;;;;22.03;10.20;;;;;;;0.74;68.53;96448.47;5083290;28;20415;-65
2021/01/26 04:15:50;;;;;;;14.37;9.00;;;;;;;1.09;67.27;96444.28;5089940;28;20412;-66
2021/01/26 04:18:20;;;;;;;12.27;8.83;;;;;;;0.77;69.03;96450.81;5090994;28;20439;-64
2021/01/26 04:20:48;;;;;;;16.23;9.60;;;;;;;1.31;67.24;96440.13;5090073;28;20408;-66
2021/01/26 04:23:14;;;;;;;10.20;8.03;;;;;;;1.40;66.34;96428.28;5090413;28;20848;-67
2021/01/26 04:25:41;;;;;;;12.60;8.03;;;;;;;1.32;66.48;96428.88;5084108;28;20505;-67
2021/01/26 04:28:14;;;;;;;12.77;8.70;;;;;;;1.15;67.24;96437.84;5070428;28;20643;-66
2021/01/26 04:30:40;;;;;;;16.13;8.70;;;;;;;1.07;67.92;96438.41;5091005;28;20431;-66
2021/01/26 04:33:09;;;;;;;12.67;8.17;;;;;;;1.26;66.77;96437.06;5085785;28;20424;-66
2021/01/26 04:35:35;;;;;;;11.10;7.57;;;;;;;0.85;68.98;96434.78;5090917;28;20434;-68
2021/01/26 04:38:01;;;;;;;14.90;7.90;;;;;;;0.86;69.12;96435.63;5091020;28;20443;-66
2021/01/26 04:40:28;;;;;;;14.10;8.00;;;;;;;1.03;68.06;96442.97;5091347;28;20422;-67
2021/01/26 04:43:03;;;;;;;12.67;7.60;;;;;;;1.24;67.68;96452.66;5089577;28;20408;-65
2021/01/26 04:45:44;;;;;;;10.70;7.93;;;;;;;0.80;69.02;96439.47;5091047;28;20895;-67
2021/01/26 04:48:25;;;;;;;9.53;6.50;;;;;;;1.21;67.64;96437.41;5090821;28;20431;-64
2021/01/26 04:51:21;;;;;;;11.90;7.60;;;;;;;1.16;67.64;96437.75;5089896;28;20419;-66
2021/01/26 04:54:23;;;;;;;12.27;7.73;;;;;;;1.32;67.71;96440.00;5089291;28;20924;-66
2021/01/26 04:57:26;;;;;;;12.87;7.50;;;;;;;1.01;68.90;96437.09;5088000;28;20553;-66
2021/01/26 05:00:00;;;;;;;13.33;8.03;;;;;;;1.07;68.52;96452.13;5088296;28;21044;-67
2021/01/26 05:02:46;;;;;;;9.27;7.70;;;;;;;0.84;68.88;96450.41;5067795;28;21025;-66
2021/01/26 05:05:16;;;;;;;9.33;6.50;;;;;;;1.06;68.23;96460.81;5080563;28;20891;-64
2021/01/26 05:07:47;;;;;;;12.03;7.70;;;;;;;1.01;68.51;96451.75;5071659;28;20451;-65
2021/01/26 05:10:15;;;;;;;8.20;6.00;;;;;;;1.35;67.64;96451.88;5087428;28;20454;-64
2021/01/26 05:13:03;;;;;;;10.80;5.90;;;;;;;1.62;66.27;96455.91;5084864;28;20447;-65
2021/01/26 05:15:31;;;;;;;9.47;7.30;;;;;;;1.11;67.32;96450.16;5064533;28;21002;-66
2021/01/26 05:18:00;;;;;;;8.50;6.43;;;;;;;1.50;66.55;96453.31;5071134;28;20501;-66
2021/01/26 05:20:29;;;;;;;9.00;6.53;;;;;;;1.41;66.66;96463.50;5068236;28;21028;-65
2021/01/26 05:22:58;;;;;;;10.67;6.20;;;;;;;1.57;66.30;96468.38;5071603;28;20428;-66
2021/01/26 05:25:25;;;;;;;10.70;6.97;;;;;;;0.91;68.05;96473.06;5072797;28;21015;-65
2021/01/26 05:27:51;;;;;;;8.87;6.63;;;;;;;1.14;67.92;96477.47;5069053;28;20452;-66
2021/01/26 05:30:28;;;;;;;9.67;6.40;;;;;;;1.25;67.59;96485.31;5088896;28;20481;-67
2021/01/26 05:32:58;;;;;;;8.67;6.20;;;;;;;1.10;68.16;96471.72;5084196;28;21039;-66
2021/01/26 05:35:24;;;;;;;11.30;6.20;;;;;;;1.34;67.06;96474.28;5090956;28;20839;-66
2021/01/26 05:37:52;;;;;;;7.50;6.13;;;;;;;0.87;68.84;96475.97;5089496;28;20442;-65
2021/01/26 05:40:27;;;;;;;11.77;6.53;;;;;;;1.16;67.63;96481.63;5061965;28;20425;-65
2021/01/26 05:42:56;;;;;;;11.00;6.63;;;;;;;0.99;67.76;96484.59;5086696;28;20488;-65
2021/01/26 05:45:32;;;;;;;9.87;6.23;;;;;;;1.03;68.58;96479.09;5090014;28;20487;-68
2021/01/26 05:48:03;;;;;;;10.53;6.30;;;;;;;0.84;68.78;96486.50;5074219;28;20480;-66
2021/01/26 05:50:30;;;;;;;10.37;6.57;;;;;;;1.10;68.20;96488.97;5094834;28;21134;-66
2021/01/26 05:53:04;;;;;;;8.77;6.23;;;;;;;1.14;68.54;96474.91;5094280;28;20434;-67
2021/01/26 05:55:31;;;;;;;8.50;5.83;;;;;;;1.08;68.47;96486.50;5093457;28;20420;-64
2021/01/26 05:58:09;;;;;;;13.10;6.10;;;;;;;1.12;68.35;96477.59;5092831;28;20469;-66
2021/01/26 06:00:36;;;;;;;7.80;5.83;;;;;;;0.90;69.35;96484.31;5092107;28;20933;-68
2021/01/26 06:03:17;;;;;;;11.87;5.60;;;;;;;0.94;69.32;96482.34;5088698;28;20423;-66
2021/01/26 06:06:07;;;;;;;9.77;5.57;;;;;;;1.22;67.91;96491.50;5094477;28;20535;-64
2021/01/26 06:08:48;;;;;;;8.10;5.90;;;;;;;1.01;68.64;96490.47;5088134;28;20510;-67
2021/01/26 06:11:16;;;;;;;12.37;5.90;;;;;;;0.88;68.70;96504.25;5088556;28;20435;-64
2021/01/26 06:13:42;;;;;;;11.80;5.70;;;;;;;1.33;68.00;96495.88;5094614;28;20423;-66
2021/01/26 06:16:15;;;;;;;9.00;6.07;;;;;;;0.76;68.88;96499.97;5093764;28;20428;-66
2021/01/26 06:18:58;;;;;;;12.73;5.53;;;;;;;1.18;68.04;96502.16;5094166;28;20185;-66
2021/01/26 06:21:24;;;;;;;8.33;5.67;;;;;;;0.74;69.63;96512.13;5087944;28;20431;-68
2021/01/26 06:23:50;;;;;;;5.80;5.20;;;;;;;0.96;68.75;96508.88;5093682;28;20444;-66
2021/01/26 06:26:16;;;;;;;9.70;4.97;;;;;;;0.98;68.60;96513.91;5092041;28;20451;-63
2021/01/26 06:29:06;;;;;;;9.27;5.70;;;;;;;1.20;68.06;96508.03;5094648;28;20193;-65
2021/01/26 06:31:47;;;;;;;8.73;4.30;;;;;;;1.38;67.69;96518.78;5088768;28;20551;-64
2021/01/26 06:34:28;;;;;;;6.73;4.77;;;;;;;1.16;67.82;96511.75;5086191;28;20461;-68
2021/01/26 06:37:41;;;;;;;19.87;5.80;;;;;;;1.52;67.61;96517.75;5092934;28;20463;-67
2021/01/26 06:40:42;;;;;;;9.10;5.47;;;;;;;1.17;68.00;96527.16;5090959;28;20996;-67
2021/01/26 06:43:13;;;;;;;8.17;5.67;;;;;;;1.27;67.53;96522.13;5051058;28;20485;-66
2021/01/26 06:45:59;;;;;;;6.10;4.80;;;;;;;1.16;67.94;96529.81;5051765;28;20458;-65
2021/01/26 06:49:04;;;;;;;9.33;4.40;;;;;;;1.02;67.93;96523.91;5038230;28;21035;-66
2021/01/26 06:51:40;;;;;;;8.13;4.93;;;;;;;1.01;68.64;96524.00;5050836;28;20590;-67
2021/01/26 06:54:05;;;;;;;9.87;4.50;;;;;;;1.48;67.32;96531.84;5034597;28;20806;-67
2021/01/26 06:56:49;;;;;;;6.77;4.37;;;;;;;1.18;67.97;96538.28;5051114;28;20476;-69
2021/01/26 06:59:38;;;;;;;5.10;3.90;;;;;;;1.33;67.41;96532.03;5045115;28;20183;-66
2021/01/26 07:02:43;;;;;;;8.03;5.00;;;;;;;1.57;66.64;96531.16;5038072;28;20437;-66
2021/01/26 07:05:32;;;;;;;7.70;4.53;;;;;;;1.28;67.28;96546.22;5034281;28;20461;-66
2021/01/26 07:08:22;;;;;;;5.73;4.53;;;;;;;1.63;66.51;96545.41;5045287;28;20473;-65
2021/01/26 07:10:50;;;;;;;9.70;4.93;;;;;;;1.59;66.66;96547.38;5054619;28;20511;-66
2021/01/26 07:13:29;;;;;;;10.90;4.60;;;;;;;1.67;66.75;96546.84;5051680;28;20436;-66
2021/01/26 07:16:07;;;;;;;4.57;3.70;;;;;;;1.44;67.15;96557.09;5051328;28;21183;-67
2021/01/26 07:18:54;;;;;;;11.37;5.00;;;;;;;1.59;66.64;96562.88;5032224;28;20473;-67
2021/01/26 07:21:48;;;;;;;6.43;4.20;;;;;;;1.25;67.41;96557.59;5090028;28;20465;-66
2021/01/26 07:24:19;;;;;;;11.33;4.83;;;;;;;1.59;67.14;96565.47;5113463;28;20439;-68
2021/01/26 07:26:56;;;;;;;10.83;4.27;;;;;;;1.97;66.13;96572.16;5106813;28;20447;-68
2021/01/26 07:29:42;;;;;;;6.40;3.70;;;;;;;1.62;67.03;96578.16;5093314;28;20510;-67
2021/01/26 07:32:30;;;;;;;7.17;4.33;;;;;;;1.84;67.12;96579.16;5074560;28;20848;-67
2021/01/26 07:35:25;;;;;;;5.27;3.60;;;;;;;1.80;66.49;96577.75;5071682;28;20420;-69
2021/01/26 07:38:09;;;;;;;7.37;3.80;;;;;;;1.88;66.43;96588.34;5093246;28;20455;-67
2021/01/26 07:41:14;;;;;;;7.53;4.00;;;;;;;1.84;66.94;96592.09;5089710;28;20412;-66
2021/01/26 07:43:58;;;;;;;8.07;4.33;;;;;;;2.09;65.85;96604.00;5091956;28;20431;-66
2021/01/26 07:46:34;;;;;;;8.53;4.33;;;;;;;2.01;65.84;96606.34;5083702;28;20455;-67
2021/01/26 07:49:10;;;;;;;9.48;4.10;;;;;;;1.94;66.66;96611.16;5073094;28;20424;-67
2021/01/26 07:51:43;;;;;;;7.20;4.40;;;;;;;2.26;65.00;96615.72;5091707;28;20663;-67
2021/01/26 07:54:27;;;;;;;5.20;3.10;;;;;;;2.27;64.92;96622.50;5091681;28;20408;-67
2021/01/26 07:56:53;;;;;;;6.13;3.23;;;;;;;2.04;65.53;96631.16;5092272;28;20890;-67
2021/01/26 07:59:25;;;;;;;5.90;3.40;;;;;;;2.15;64.90;96626.84;5092535;28;20534;-67
2021/01/26 08:01:53;;;;;;;5.10;3.50;;;;;;;2.33;65.04;96636.75;5085950;28;20463;-67
2021/01/26 08:04:19;;;;;;;8.23;3.80;;;;;;;2.41;64.96;96634.41;5089385;28;20490;-66
2021/01/26 08:06:51;;;;;;;9.93;4.43;;;;;;;2.33;65.09;96641.09;5091950;28;20519;-66
2021/01/26 08:09:25;;;;;;;6.37;3.70;;;;;;;2.17;66.00;96647.41;5094710;28;20579;-66
2021/01/26 08:12:12;;;;;;;5.90;3.40;;;;;;;2.48;64.96;96655.47;5088059;28;20484;-66
2021/01/26 08:14:41;;;;;;;9.67;4.03;;;;;;;2.70;64.94;96659.03;5091444;28;20454;-67
2021/01/26 08:17:11;;;;;;;6.00;4.00;;;;;;;2.48;65.78;96657.22;5074452;28;20444;-64
2021/01/26 08:19:48;;;;;;;8.67;2.90;;;;;;;2.17;66.00;96665.50;5091029;28;20424;-67
2021/01/26 08:22:20;;;;;;;8.43;3.40;;;;;;;2.17;66.59;96657.75;5084467;28;20479;-67
2021/01/26 08:24:47;;;;;;;7.70;3.93;;;;;;;2.02;67.32;96658.88;5090275;28;20508;-66
2021/01/26 08:27:25;;;;;;;9.60;4.40;;;;;;;1.88;67.83;96663.31;5074676;28;20489;-66
2021/01/26 08:29:53;;;;;;;23.10;4.93;;;;;;;1.65;68.10;96668.34;5092666;28;20484;-65
2021/01/26 08:32:22;;;;;;;13.00;3.97;;;;;;;1.49;68.98;96672.97;5087670;28;20424;-67
2021/01/26 08:35:17;;;;;;;8.00;4.87;;;;;;;1.80;68.72;96675.94;5092954;28;20427;-67
2021/01/26 08:37:45;;;;;;;7.20;4.20;;;;;;;1.68;68.96;96693.97;5088648;28;20527;-68
2021/01/26 08:40:17;;;;;;;6.73;5.20;;;;;;;1.68;69.54;96693.97;5091678;28;20455;-67
2021/01/26 08:42:43;;;;;;;9.17;6.00;;;;;;;1.80;69.38;96707.78;5091334;28;20485;-66
2021/01/26 08:45:39;;;;;;;7.90;5.93;;;;;;;1.51;69.99;96702.09;5090506;28;21111;-67
2021/01/26 08:48:28;;;;;;;11.93;6.37;;;;;;;1.46;70.76;96710.16;5086288;28;20271;-65
2021/01/26 08:50:54;;;;;;;12.30;6.40;;;;;;;1.47;70.40;96704.06;5091208;28;20423;-64
2021/01/26 08:53:22;;;;;;;12.77;7.60;;;;;;;1.73;69.93;96705.75;5092704;28;20548;-67
2021/01/26 08:55:59;;;;;;;13.63;7.97;;;;;;;1.38;70.16;96700.38;5090744;28;20178;-66
2021/01/26 08:58:49;;;;;;;10.20;6.80;;;;;;;1.69;70.02;96705.94;5091056;28;20458;-66
2021/01/26 09:01:25;;;;;;;15.80;6.60;;;;;;;1.85;68.93;96704.88;5090815;28;20465;-65
2021/01/26 09:03:55;;;;;;;11.13;5.80;;;;;;;1.67;69.44;96712.97;5090041;28;20518;-66
2021/01/26 09:06:26;;;;;;;11.47;6.20;;;;;;;1.75;68.62;96719.38;5092700;28;20481;-65
2021/01/26 09:08:55;;;;;;;9.43;4.97;;;;;;;1.80;68.23;96722.44;5092602;28;20454;-68
2021/01/26 09:11:39;;;;;;;15.23;6.77;;;;;;;1.72;68.46;96714.44;5088943;28;20453;-66
2021/01/26 09:14:12;;;;;;;9.77;5.23;;;;;;;1.79;67.11;96729.38;5095282;28;20494;-69
2021/01/26 09:16:38;;;;;;;6.93;5.33;;;;;;;1.75;67.26;96719.38;5093013;28;20449;-66
2021/01/26 09:19:09;;;;;;;8.40;5.67;;;;;;;1.98;67.14;96718.56;5091666;28;20441;-66
2021/01/26 09:21:34;;;;;;;11.53;6.03;;;;;;;1.87;66.81;96718.50;5092427;28;20433;-68
2021/01/26 09:24:01;;;;;;;7.23;4.63;;;;;;;1.82;66.40;96718.00;5095789;28;20534;-66
2021/01/26 09:26:30;;;;;;;7.40;4.53;;;;;;;1.93;65.61;96718.06;5092841;28;20207;-67
2021/01/26 09:28:56;;;;;;;8.20;4.77;;;;;;;2.19;65.34;96723.09;5075645;28;20455;-68
2021/01/26 09:31:24;;;;;;;9.70;5.23;;;;;;;2.25;64.98;96714.91;5090642;28;20503;-66
2021/01/26 09:34:01;;;;;;;11.53;4.90;;;;;;;1.79;65.90;96721.63;5086289;28;20424;-66
2021/01/26 09:36:27;;;;;;;7.93;4.17;;;;;;;2.14;64.81;96714.88;5086111;28;20459;-67
2021/01/26 09:39:09;;;;;;;6.20;4.20;;;;;;;2.26;64.23;96713.97;5092013;28;20415;-65
2021/01/26 09:41:36;;;;;;;6.37;3.90;;;;;;;2.22;64.01;96717.72;5093725;28;20177;-67
2021/01/26 09:44:06;;;;;;;7.90;4.63;;;;;;;1.98;65.05;96710.81;5093960;28;20462;-66
2021/01/26 09:46:36;;;;;;;4.83;3.33;;;;;;;2.34;63.66;96730.69;5093830;28;20448;-67
2021/01/26 09:49:24;;;;;;;6.83;4.03;;;;;;;2.51;63.65;96730.28;5094392;28;20464;-67
2021/01/26 09:51:56;;;;;;;5.10;3.70;;;;;;;2.26;63.45;96726.91;5093481;28;20419;-67
2021/01/26 09:54:28;;;;;;;5.17;3.47;;;;;;;2.04;63.81;96732.81;5091160;28;20424;-65
2021/01/26 09:56:54;;;;;;;10.53;4.33;;;;;;;2.30;63.36;96730.09;5093537;28;20523;-66
2021/01/26 09:59:20;;;;;;;7.83;3.83;;;;;;;2.19;63.12;96728.28;5093939;28;20510;-67
2021/01/26 10:01:47;;;;;;;5.70;3.70;;;;;;;2.20;63.57;96735.09;5088544;28;20423;-67
2021/01/26 10:04:14;;;;;;;7.27;3.83;;;;;;;2.40;63.47;96720.72;5095403;28;20547;-67
2021/01/26 10:06:40;;;;;;;7.30;3.80;;;;;;;2.56;62.71;96740.28;5095345;28;20431;-65
2021/01/26 10:09:22;;;;;;;7.33;3.87;;;;;;;2.59;62.35;96742.63;5092914;28;20423;-65
2021/01/26 10:11:48;;;;;;;4.63;3.60;;;;;;;2.51;62.33;96743.22;5088689;28;20419;-66
2021/01/26 10:14:26;;;;;;;4.00;3.20;;;;;;;2.73;62.21;96741.59;5094676;28;20404;-66
2021/01/26 10:16:59;;;;;;;7.03;3.70;;;;;;;2.33;62.49;96750.56;5093762;28;20436;-67
2021/01/26 10:19:33;;;;;;;7.40;4.10;;;;;;;2.41;62.46;96744.81;5094772;28;20438;-65
2021/01/26 10:22:19;;;;;;;6.47;4.00;;;;;;;2.26;63.39;96749.34;5093223;28;20431;-67
2021/01/26 10:24:45;;;;;;;5.37;3.73;;;;;;;2.35;62.06;96758.19;5092774;28;20535;-67
2021/01/26 10:27:13;;;;;;;5.30;3.70;;;;;;;2.47;61.56;96754.72;5093932;28;20543;-66
2021/01/26 10:29:43;;;;;;;6.43;3.60;;;;;;;2.72;61.08;96760.66;5094159;28;20197;-66
2021/01/26 10:32:12;;;;;;;8.53;3.93;;;;;;;2.75;60.89;96766.44;5081062;28;20412;-64
2021/01/26 10:34:42;;;;;;;5.73;3.23;;;;;;;2.72;60.16;96768.44;5093220;28;20420;-66
2021/01/26 10:37:22;;;;;;;6.10;3.83;;;;;;;3.26;59.04;96763.56;5094753;28;20435;-67
2021/01/26 10:40:09;;;;;;;4.50;3.00;;;;;;;3.43;58.47;96776.03;5103671;28;20415;-67
2021/01/26 10:42:35;;;;;;;4.10;2.87;;;;;;;3.23;58.07;96764.59;5092017;28;20502;-68
2021/01/26 10:45:01;;;;;;;4.87;3.53;;;;;;;3.20;59.14;96777.81;5097150;28;20455;-65
2021/01/26 10:47:28;;;;;;;5.83;4.00;;;;;;;3.01;59.12;96770.59;5094499;28;20718;-67
2021/01/26 10:49:56;;;;;;;4.93;3.27;;;;;;;2.85;59.38;96776.94;5094210;28;20761;-68
2021/01/26 10:52:41;;;;;;;5.60;3.57;;;;;;;2.91;59.46;96773.06;5092967;28;20448;-66
2021/01/26 10:55:08;;;;;;;5.50;3.90;;;;;;;2.99;59.27;96775.88;5094291;28;20436;-67
2021/01/26 10:57:34;;;;;;;6.33;3.67;;;;;;;2.92;59.67;96772.13;5094357;28;20447;-65
2021/01/26 11:00:00;;;;;;;8.70;3.43;;;;;;;2.56;59.92;96774.72;5093483;28;20423;-67
2021/01/26 11:02:26;;;;;;;4.60;3.90;;;;;;;2.67;60.15;96778.28;5089308;28;20186;-68
2021/01/26 11:04:52;;;;;;;11.50;3.50;;;;;;;2.69;59.19;96779.00;5093283;28;20201;-66
2021/01/26 11:07:17;;;;;;;4.83;3.30;;;;;;;2.74;59.13;96784.66;5086899;28;20439;-67
2021/01/26 11:09:48;;;;;;;3.83;2.80;;;;;;;2.75;60.07;96792.31;5089357;28;20182;-67
2021/01/26 11:12:15;;;;;;;6.17;3.00;;;;;;;2.80;59.90;96798.91;5094001;28;20165;-66
2021/01/26 11:14:40;;;;;;;6.73;3.40;;;;;;;2.60;60.04;96791.69;5094057;28;20765;-68
2021/01/26 11:17:06;;;;;;;8.00;3.50;;;;;;;2.65;60.47;96795.72;5093156;28;20444;-68
2021/01/26 11:19:33;;;;;;;6.90;3.77;;;;;;;2.70;60.20;96791.84;5093141;28;20315;-66
2021/01/26 11:21:59;;;;;;;5.50;3.57;;;;;;;2.81;59.03;96803.97;5093010;28;20442;-65
2021/01/26 11:24:24;;;;;;;5.43;3.10;;;;;;;2.44;59.59;96799.75;5089755;28;20459;-66
2021/01/26 11:26:50;;;;;;;5.77;3.13;;;;;;;2.45;59.26;96798.81;5085187;28;20817;-66
2021/01/26 11:29:16;;;;;;;4.33;2.63;;;;;;;2.71;58.87;96797.81;5093151;28;20224;-66
2021/01/26 11:31:42;;;;;;;4.23;3.07;;;;;;;2.43;58.99;96794.66;5086654;28;20737;-65
2021/01/26 11:34:08;;;;;;;12.80;2.80;;;;;;;2.66;58.88;96805.09;5092505;28;20243;-68
2021/01/26 11:36:33;;;;;;;8.90;2.93;;;;;;;2.76;58.44;96793.16;5091267;28;20243;-65
2021/01/26 11:38:59;;;;;;;4.37;2.80;;;;;;;2.67;58.59;96794.66;5090882;28;20423;-67
2021/01/26 11:41:25;;;;;;;4.63;2.43;;;;;;;2.64;58.58;96796.66;5091879;28;20181;-66
2021/01/26 11:43:50;;;;;;;3.40;2.50;;;;;;;2.45;58.55;96805.72;5090397;28;20200;-65
2021/01/26 11:46:16;;;;;;;4.30;3.20;;;;;;;2.58;57.87;96796.16;5092165;28;20174;-66
2021/01/26 11:48:43;;;;;;;5.83;2.70;;;;;;;2.48;58.44;96796.91;5091106;28;20197;-68
2021/01/26 11:51:09;;;;;;;7.10;2.80;;;;;;;2.96;57.79;96798.59;5092430;28;20424;-67
2021/01/26 11:53:35;;;;;;;10.23;3.43;;;;;;;3.16;56.80;96795.31;5092271;28;20411;-67
2021/01/26 11:56:01;;;;;;;7.47;3.67;;;;;;;3.05;56.79;96796.16;5092512;28;20588;-67
2021/01/26 11:58:27;;;;;;;14.30;3.20;;;;;;;2.97;56.77;96790.69;5091910;28;20471;-67
2021/01/26 12:00:54;;;;;;;6.60;3.30;;;;;;;3.20;56.72;96795.94;5088790;28;20581;-68
2021/01/26 12:03:20;;;;;;;7.93;3.07;;;;;;;2.87;56.37;96795.75;5090717;28;20430;-67